createdAt,value
2023-06-22T00:00:12.121Z,9.80
2023-06-22T00:02:41.592Z,8.60
2023-06-22T00:05:09.286Z,9.45
2023-06-22T00:07:36.040Z,10.27
2023-06-22T00:10:02.751Z,10.88
2023-06-22T00:12:29.517Z,12.52
2023-06-22T00:14:57.578Z,8.60
2023-06-22T00:17:24.330Z,9.77
2023-06-22T00:19:54.658Z,11.60
2023-06-22T00:22:30.306Z,8.57
2023-06-22T00:24:57.597Z,10.02
2023-06-22T00:27:24.296Z,10.85
2023-06-22T00:29:50.990Z,8.98
2023-06-22T00:32:18.650Z,8.48
2023-06-22T00:34:48.058Z,10.82
2023-06-22T00:37:14.763Z,10.52
2023-06-22T00:39:41.523Z,10.50
2023-06-22T00:42:08.226Z,10.05
2023-06-22T00:44:36.105Z,11.90
2023-06-22T00:47:02.802Z,8.05
2023-06-22T00:49:29.485Z,8.02
2023-06-22T00:51:56.231Z,12.10
2023-06-22T00:54:25.728Z,9.57
2023-06-22T00:56:55.223Z,9.50
2023-06-22T00:59:21.922Z,12.85
2023-06-22T01:01:48.552Z,7.88
2023-06-22T01:04:15.270Z,9.45
2023-06-22T01:06:41.921Z,12.27
2023-06-22T01:09:08.711Z,8.88
2023-06-22T01:11:35.344Z,8.43
2023-06-22T01:14:02.095Z,9.48
2023-06-22T01:16:29.899Z,10.77
2023-06-22T01:18:56.590Z,12.75
2023-06-22T01:21:23.256Z,10.23
2023-06-22T01:23:51.197Z,8.85
2023-06-22T01:26:22.138Z,8.20
2023-06-22T01:28:49.014Z,9.82
2023-06-22T01:31:15.922Z,12.15
2023-06-22T01:33:42.620Z,9.60
2023-06-22T01:36:09.571Z,14.45
2023-06-22T01:38:37.610Z,9.15
2023-06-22T01:41:04.290Z,12.43
2023-06-22T01:43:30.977Z,12.70
2023-06-22T01:45:57.837Z,11.10
2023-06-22T01:48:24.616Z,9.73
2023-06-22T01:50:51.306Z,10.88
2023-06-22T01:53:18.026Z,8.93
2023-06-22T01:56:04.515Z,10.23
2023-06-22T01:58:31.446Z,10.77
2023-06-22T02:00:58.939Z,9.25
2023-06-22T02:03:25.743Z,9.63
2023-06-22T02:05:54.730Z,9.95
2023-06-22T02:08:22.349Z,10.88
2023-06-22T02:10:49.107Z,10.20
2023-06-22T02:13:15.811Z,10.80
2023-06-22T02:15:42.723Z,11.70
2023-06-22T02:18:12.703Z,8.20
2023-06-22T02:20:39.365Z,8.65
2023-06-22T02:23:06.109Z,9.68
2023-06-22T02:25:35.651Z,8.02
2023-06-22T02:28:02.378Z,12.82
2023-06-22T02:30:29.311Z,10.55
2023-06-22T02:33:00.367Z,9.15
2023-06-22T02:35:32.815Z,8.00
2023-06-22T02:38:01.166Z,8.55
2023-06-22T02:40:28.459Z,11.73
2023-06-22T02:42:56.810Z,12.38
2023-06-22T02:45:42.567Z,9.27
2023-06-22T02:48:09.319Z,9.27
2023-06-22T02:50:35.973Z,9.07
2023-06-22T02:53:04.095Z,12.07
2023-06-22T02:58:06.027Z,11.88
2023-06-22T03:00:35.606Z,10.77
2023-06-22T03:03:02.483Z,8.50
2023-06-22T03:05:30.603Z,8.75
2023-06-22T03:07:59.539Z,8.57
2023-06-22T03:10:28.236Z,11.35
2023-06-22T03:12:55.246Z,8.68
2023-06-22T03:15:23.590Z,9.57
2023-06-22T03:17:51.807Z,10.50
2023-06-22T03:20:18.564Z,12.35
2023-06-22T03:22:45.296Z,9.18
2023-06-22T03:25:15.957Z,9.45
2023-06-22T03:27:46.152Z,8.57
2023-06-22T03:30:12.898Z,8.50
2023-06-22T03:32:39.736Z,9.63
2023-06-22T03:35:08.369Z,10.55
2023-06-22T03:37:39.449Z,8.50
2023-06-22T03:40:09.165Z,9.82
2023-06-22T03:42:37.356Z,24.90
2023-06-22T03:45:05.318Z,9.43
2023-06-22T03:47:32.677Z,14.02
2023-06-22T03:49:59.670Z,9.18
2023-06-22T03:52:26.519Z,12.57
2023-06-22T03:55:11.932Z,9.52
2023-06-22T03:57:38.629Z,10.50
2023-06-22T04:00:09.049Z,9.15
2023-06-22T04:02:42.236Z,12.10
2023-06-22T04:05:09.286Z,14.80
2023-06-22T04:07:38.118Z,10.45
2023-06-22T04:10:04.855Z,12.95
2023-06-22T04:12:31.502Z,11.02
2023-06-22T04:14:58.766Z,9.57
2023-06-22T04:17:26.274Z,10.18
2023-06-22T04:19:53.074Z,9.50
2023-06-22T04:22:19.729Z,8.32
2023-06-22T04:24:47.624Z,9.30
2023-06-22T04:27:14.315Z,9.10
2023-06-22T04:29:49.769Z,8.07
2023-06-22T04:32:16.742Z,20.08
2023-06-22T04:34:44.496Z,8.98
2023-06-22T04:37:16.521Z,10.10
2023-06-22T04:39:43.415Z,10.50
2023-06-22T04:42:10.084Z,13.88
2023-06-22T04:44:36.820Z,12.00
2023-06-22T04:47:09.273Z,10.45
2023-06-22T04:49:38.995Z,10.73
2023-06-22T04:52:05.719Z,13.73
2023-06-22T04:54:36.513Z,12.05
2023-06-22T04:57:03.201Z,11.82
2023-06-22T04:59:30.910Z,9.02
2023-06-22T05:01:57.643Z,11.32
2023-06-22T05:04:25.025Z,13.43
2023-06-22T05:06:52.007Z,11.02
2023-06-22T05:09:18.672Z,12.43
2023-06-22T05:11:45.343Z,12.65
2023-06-22T05:14:11.999Z,12.13
2023-06-22T05:16:38.663Z,13.98
2023-06-22T05:19:05.577Z,13.32
2023-06-22T05:21:32.229Z,11.30
2023-06-22T05:24:01.281Z,9.32
2023-06-22T05:26:28.270Z,11.80
2023-06-22T05:28:55.011Z,12.20
2023-06-22T05:31:21.760Z,12.60
2023-06-22T05:33:48.827Z,13.27
2023-06-22T05:36:15.587Z,14.35
2023-06-22T05:38:42.250Z,12.07
2023-06-22T05:41:08.910Z,10.88
2023-06-22T05:43:35.754Z,11.90
2023-06-22T05:46:03.580Z,14.90
2023-06-22T05:48:30.300Z,13.13
2023-06-22T05:50:56.956Z,13.65
2023-06-22T05:53:23.650Z,17.77
2023-06-22T05:55:51.696Z,9.95
2023-06-22T05:58:18.501Z,12.15
2023-06-22T06:00:45.184Z,13.85
2023-06-22T06:03:13.509Z,11.02
2023-06-22T06:08:46.445Z,12.85
2023-06-22T06:11:13.127Z,11.85
2023-06-22T06:13:39.858Z,11.52
2023-06-22T06:16:06.578Z,14.85
2023-06-22T06:18:33.228Z,11.50
2023-06-22T06:20:59.870Z,12.00
2023-06-22T06:23:26.561Z,13.10
2023-06-22T06:25:54.608Z,14.65
2023-06-22T06:28:21.300Z,13.88
2023-06-22T06:30:48.366Z,13.85
2023-06-22T06:33:15.370Z,12.63
2023-06-22T06:35:45.021Z,10.85
2023-06-22T06:38:11.851Z,13.88
2023-06-22T06:40:38.514Z,12.82
2023-06-22T06:43:05.144Z,11.50
2023-06-22T06:45:34.142Z,14.73
2023-06-22T06:48:00.968Z,12.95
2023-06-22T06:50:27.932Z,13.95
2023-06-22T06:52:55.039Z,14.35
2023-06-22T06:55:26.340Z,10.35
2023-06-22T06:57:53.669Z,15.07
2023-06-22T07:00:20.590Z,13.60
2023-06-22T07:02:49.525Z,12.65
2023-06-22T07:05:16.650Z,12.13
2023-06-22T07:07:43.866Z,14.68
2023-06-22T07:10:10.777Z,13.15
2023-06-22T07:12:37.442Z,14.75
2023-06-22T07:15:04.505Z,15.82
2023-06-22T07:17:31.211Z,16.52
2023-06-22T07:19:57.932Z,19.48
2023-06-22T07:22:24.651Z,14.18
2023-06-22T07:24:52.599Z,13.10
2023-06-22T07:27:22.631Z,14.43
2023-06-22T07:29:49.451Z,11.65
2023-06-22T07:32:16.229Z,13.50
2023-06-22T07:34:43.038Z,19.08
2023-06-22T07:37:09.831Z,14.77
2023-06-22T07:39:36.547Z,12.25
2023-06-22T07:42:03.292Z,12.52
2023-06-22T07:44:31.056Z,12.68
2023-06-22T07:46:57.781Z,13.18
2023-06-22T07:49:24.458Z,13.00
2023-06-22T07:51:51.137Z,14.20
2023-06-22T07:54:18.478Z,16.52
2023-06-22T07:56:45.206Z,14.43
2023-06-22T07:59:11.887Z,10.30
2023-06-22T08:01:38.665Z,19.13
2023-06-22T08:04:07.023Z,14.35
2023-06-22T08:06:33.957Z,13.75
2023-06-22T08:09:04.476Z,11.52
2023-06-22T08:11:31.200Z,15.63
2023-06-22T08:13:59.621Z,10.60
2023-06-22T08:16:26.854Z,12.48
2023-06-22T08:18:53.611Z,14.45
2023-06-22T08:21:20.320Z,12.98
2023-06-22T08:23:46.956Z,12.63
2023-06-22T08:26:13.865Z,14.30
2023-06-22T08:28:40.736Z,13.18
2023-06-22T08:31:07.424Z,11.85
2023-06-22T08:33:34.113Z,10.30
2023-06-22T08:36:03.116Z,11.50
2023-06-22T08:38:29.848Z,13.75
2023-06-22T08:40:56.534Z,13.02
2023-06-22T08:43:23.213Z,15.05
2023-06-22T08:45:50.216Z,12.93
2023-06-22T08:48:16.960Z,12.27
2023-06-22T08:50:43.780Z,10.93
2023-06-22T08:53:10.445Z,12.60
2023-06-22T08:55:38.535Z,13.60
2023-06-22T08:58:05.221Z,11.98
2023-06-22T09:00:34.062Z,12.27
2023-06-22T09:03:01.064Z,10.07
2023-06-22T09:05:30.354Z,12.82
2023-06-22T09:07:57.331Z,15.43
2023-06-22T09:10:24.144Z,10.30
2023-06-22T09:12:50.828Z,12.18
2023-06-22T09:15:27.201Z,12.00
2023-06-22T09:17:55.552Z,11.10
2023-06-22T09:20:22.365Z,12.18
2023-06-22T09:22:49.168Z,12.70
2023-06-22T09:25:18.112Z,10.60
2023-06-22T09:27:44.825Z,10.43
2023-06-22T09:30:11.600Z,12.18
2023-06-22T09:32:38.429Z,11.50
2023-06-22T09:35:06.817Z,10.82
2023-06-22T09:37:33.626Z,11.93
2023-06-22T09:40:00.349Z,10.52
2023-06-22T09:42:27.041Z,10.30
2023-06-22T09:44:56.768Z,10.52
2023-06-22T09:47:23.571Z,9.63
2023-06-22T09:49:50.244Z,9.68
2023-06-22T09:52:16.919Z,8.98
2023-06-22T09:54:45.791Z,9.70
2023-06-22T09:57:12.641Z,25.58
2023-06-22T09:59:41.047Z,11.77
2023-06-22T10:02:08.312Z,9.20
2023-06-22T10:04:35.471Z,11.30
2023-06-22T10:07:02.418Z,10.80
2023-06-22T10:09:29.136Z,11.40
2023-06-22T10:11:55.841Z,10.73
2023-06-22T10:14:41.302Z,10.65
2023-06-22T10:17:08.663Z,12.30
2023-06-22T10:19:38.049Z,11.65
2023-06-22T10:22:04.823Z,11.00
2023-06-22T10:24:31.821Z,10.05
2023-06-22T10:26:58.523Z,10.98
2023-06-22T10:29:25.253Z,13.05
2023-06-22T10:31:52.044Z,10.82
2023-06-22T10:34:18.897Z,9.98
2023-06-22T10:36:48.377Z,9.65
2023-06-22T10:39:18.816Z,9.13
2023-06-22T10:41:45.585Z,8.55
2023-06-22T10:44:13.300Z,8.10
2023-06-22T10:46:40.070Z,10.60
2023-06-22T10:49:06.873Z,8.57
2023-06-22T10:51:33.775Z,10.40
2023-06-22T10:54:06.454Z,9.93
2023-06-22T10:56:35.159Z,8.50
2023-06-22T10:59:02.941Z,9.13
2023-06-22T11:01:35.055Z,9.32
2023-06-22T11:04:03.255Z,11.25
2023-06-22T11:06:31.228Z,11.15
2023-06-22T11:09:06.497Z,9.40
2023-06-22T11:11:44.630Z,7.63
2023-06-22T11:14:11.398Z,9.35
2023-06-22T11:16:38.079Z,8.10
2023-06-22T11:19:04.805Z,7.63
2023-06-22T11:21:32.186Z,8.60
2023-06-22T11:23:59.834Z,9.07
2023-06-22T11:26:28.598Z,7.55
2023-06-22T11:28:55.262Z,9.30
2023-06-22T11:31:26.398Z,7.72
2023-06-22T11:33:53.811Z,6.47
2023-06-22T11:36:20.841Z,8.23
2023-06-22T11:38:47.664Z,9.43
2023-06-22T11:41:14.444Z,6.80
2023-06-22T11:43:41.141Z,9.55
2023-06-22T11:46:08.075Z,8.52
2023-06-22T11:48:34.805Z,8.60
2023-06-22T11:51:01.871Z,7.43
2023-06-22T11:53:28.767Z,11.30
2023-06-22T11:55:58.730Z,8.60
2023-06-22T11:58:25.426Z,8.77
2023-06-22T12:00:53.562Z,8.90
2023-06-22T12:03:20.780Z,11.15
2023-06-22T12:06:10.640Z,7.90
2023-06-22T12:08:39.207Z,7.07
2023-06-22T12:11:06.015Z,8.32
2023-06-22T12:13:32.788Z,7.43
2023-06-22T12:15:59.636Z,7.18
2023-06-22T12:18:26.348Z,7.00
2023-06-22T12:20:53.034Z,6.85
2023-06-22T12:23:20.858Z,7.55
2023-06-22T12:26:06.277Z,8.65
2023-06-22T12:28:33.030Z,8.52
2023-06-22T12:30:59.753Z,8.18
2023-06-22T12:33:26.473Z,9.10
2023-06-22T12:35:54.381Z,6.50
2023-06-22T12:38:21.145Z,9.90
2023-06-22T12:40:48.376Z,6.10
2023-06-22T12:43:15.119Z,8.68
2023-06-22T12:48:46.201Z,8.30
2023-06-22T12:51:12.887Z,10.93
2023-06-22T12:53:39.623Z,9.70
2023-06-22T12:56:25.283Z,8.68
2023-06-22T12:58:52.053Z,8.02
2023-06-22T13:01:19.460Z,6.80
2023-06-22T13:03:46.293Z,7.32
2023-06-22T13:06:15.144Z,6.70
2023-06-22T13:09:10.788Z,6.88
2023-06-22T13:11:28.670Z,8.57
2023-06-22T13:13:55.344Z,7.03
2023-06-22T13:16:24.350Z,6.18
2023-06-22T13:18:50.997Z,7.53
2023-06-22T13:21:17.639Z,6.85
2023-06-22T13:23:44.309Z,6.78
2023-06-22T13:26:11.231Z,7.25
2023-06-22T13:28:37.901Z,6.43
2023-06-22T13:31:04.645Z,5.70
2023-06-22T13:33:31.366Z,10.30
2023-06-22T13:35:59.467Z,7.13
2023-06-22T13:38:26.150Z,6.88
2023-06-22T13:40:52.948Z,8.93
2023-06-22T13:43:19.576Z,8.68
2023-06-22T13:45:51.470Z,6.32
2023-06-22T13:48:18.220Z,7.38
2023-06-22T13:50:44.873Z,8.52
2023-06-22T13:53:11.575Z,8.05
2023-06-22T13:55:40.414Z,7.63
2023-06-22T13:58:07.123Z,5.90
2023-06-22T14:00:33.992Z,7.32
2023-06-22T14:03:01.178Z,7.85
2023-06-22T14:05:28.996Z,8.93
2023-06-22T14:07:55.731Z,6.68
2023-06-22T14:10:22.468Z,6.57
2023-06-22T14:12:49.807Z,9.63
2023-06-22T14:15:35.666Z,6.85
2023-06-22T14:18:02.406Z,5.80
2023-06-22T14:20:29.335Z,6.22
2023-06-22T14:22:56.480Z,9.63
2023-06-22T14:25:24.422Z,9.38
2023-06-22T14:27:51.178Z,6.82
2023-06-22T14:30:17.972Z,7.53
2023-06-22T14:32:44.658Z,7.18
2023-06-22T14:35:12.814Z,6.95
2023-06-22T14:37:39.496Z,7.80
2023-06-22T14:40:06.185Z,5.47
2023-06-22T14:42:32.891Z,5.75
2023-06-22T14:45:01.870Z,6.65
2023-06-22T14:47:29.615Z,5.50
2023-06-22T14:49:56.396Z,5.88
2023-06-22T14:52:23.164Z,6.13
2023-06-22T14:54:53.563Z,7.38
2023-06-22T14:57:21.184Z,6.20
2023-06-22T14:59:48.370Z,6.50
2023-06-22T15:02:15.398Z,6.97
2023-06-22T15:04:43.296Z,7.38
2023-06-22T15:07:10.045Z,6.00
2023-06-22T15:09:36.815Z,5.97
2023-06-22T15:12:06.840Z,5.30
2023-06-22T15:17:00.546Z,6.03
2023-06-22T15:19:27.214Z,5.25
2023-06-22T15:21:57.460Z,7.10
2023-06-22T15:24:24.252Z,6.88
2023-06-22T15:26:51.889Z,5.47
2023-06-22T15:29:18.589Z,7.50
2023-06-22T15:31:45.353Z,5.72
2023-06-22T15:34:12.050Z,5.95
2023-06-22T15:36:38.712Z,6.32
2023-06-22T15:39:05.470Z,6.85
2023-06-22T15:41:32.276Z,7.18
2023-06-22T15:43:59.019Z,6.28
2023-06-22T15:46:27.977Z,5.47
2023-06-22T15:48:56.426Z,7.13
2023-06-22T15:51:23.646Z,7.40
2023-06-22T15:53:50.279Z,7.28
2023-06-22T15:56:20.156Z,6.55
2023-06-22T15:58:46.834Z,9.55
2023-06-22T16:01:13.542Z,6.10
2023-06-22T16:03:40.422Z,6.22
2023-06-22T16:06:26.585Z,8.00
2023-06-22T16:08:53.299Z,7.38
2023-06-22T16:11:20.068Z,7.18
2023-06-22T16:13:47.220Z,6.80
2023-06-22T16:16:13.950Z,8.02
2023-06-22T16:18:42.464Z,6.70
2023-06-22T16:21:09.213Z,8.35
2023-06-22T16:23:35.925Z,6.72
2023-06-22T16:26:04.002Z,6.88
2023-06-22T16:28:30.736Z,7.07
2023-06-22T16:30:57.442Z,6.47
2023-06-22T16:33:24.219Z,10.10
2023-06-22T16:35:51.019Z,7.88
2023-06-22T16:38:17.722Z,9.10
2023-06-22T16:40:44.472Z,9.95
2023-06-22T16:43:11.143Z,8.43
2023-06-22T16:45:37.986Z,8.40
2023-06-22T16:48:04.945Z,8.77
2023-06-22T16:50:33.033Z,7.32
2023-06-22T16:53:00.030Z,6.93
2023-06-22T16:55:29.541Z,9.20
2023-06-22T16:57:56.366Z,7.75
2023-06-22T17:00:23.020Z,7.47
2023-06-22T17:02:50.251Z,8.02
2023-06-22T17:05:20.260Z,7.35
2023-06-22T17:07:48.754Z,8.18
2023-06-22T17:10:15.502Z,8.23
2023-06-22T17:12:45.003Z,8.02
2023-06-22T17:15:32.558Z,9.10
2023-06-22T17:17:59.395Z,10.88
2023-06-22T17:20:26.118Z,8.07
2023-06-22T17:22:52.841Z,8.38
2023-06-22T17:25:21.238Z,12.35
2023-06-22T17:27:47.941Z,7.53
2023-06-22T17:30:17.549Z,8.90
2023-06-22T17:32:44.339Z,8.13
2023-06-22T17:35:12.373Z,8.05
2023-06-22T17:37:39.066Z,8.63
2023-06-22T17:40:05.840Z,7.25
2023-06-22T17:42:32.579Z,9.15
2023-06-22T17:45:02.418Z,9.07
2023-06-22T17:47:29.130Z,9.52
2023-06-22T17:49:55.817Z,10.52
2023-06-22T17:52:22.651Z,7.53
2023-06-22T17:54:56.413Z,5.95
2023-06-22T17:57:30.168Z,6.40
2023-06-22T17:59:56.868Z,8.80
2023-06-22T18:02:24.240Z,5.68
2023-06-22T18:04:52.403Z,9.02
2023-06-22T18:07:19.106Z,5.13
2023-06-22T18:09:45.761Z,6.35
2023-06-22T18:12:12.513Z,6.88
2023-06-22T18:14:40.806Z,8.52
2023-06-22T18:17:07.506Z,8.68
2023-06-22T18:19:34.316Z,7.63
2023-06-22T18:22:01.050Z,6.70
2023-06-22T18:24:29.840Z,6.38
2023-06-22T18:26:56.537Z,6.43
2023-06-22T18:29:23.230Z,6.82
2023-06-22T18:31:49.954Z,6.57
2023-06-22T18:34:16.659Z,6.72
2023-06-22T18:36:43.413Z,7.72
2023-06-22T18:39:10.088Z,6.18
2023-06-22T18:41:36.862Z,5.53
2023-06-22T18:44:03.559Z,6.22
2023-06-22T18:49:33.896Z,6.85
2023-06-22T18:52:02.499Z,6.65
2023-06-22T18:54:30.409Z,5.60
2023-06-22T18:56:57.203Z,5.35
2023-06-22T18:59:23.926Z,6.45
2023-06-22T19:01:50.608Z,5.35
2023-06-22T19:04:20.523Z,5.10
2023-06-22T19:06:47.328Z,5.40
2023-06-22T19:09:16.643Z,6.72
2023-06-22T19:11:43.370Z,5.95
2023-06-22T19:14:10.364Z,6.57
2023-06-22T19:16:37.311Z,6.18
2023-06-22T19:19:04.053Z,6.78
2023-06-22T19:21:30.736Z,10.27
2023-06-22T19:23:57.420Z,6.15
2023-06-22T19:26:24.768Z,8.00
2023-06-22T19:28:51.625Z,5.93
2023-06-22T19:31:18.357Z,6.57
2023-06-22T19:33:45.522Z,7.78
2023-06-22T19:36:14.422Z,6.72
2023-06-22T19:38:41.302Z,6.30
2023-06-22T19:41:08.143Z,7.95
2023-06-22T19:43:34.944Z,13.00
2023-06-22T19:46:02.755Z,8.43
2023-06-22T19:48:30.012Z,6.57
2023-06-22T19:50:56.726Z,7.90
2023-06-22T19:53:23.612Z,6.43
2023-06-22T19:55:51.570Z,6.80
2023-06-22T19:58:18.622Z,6.30
2023-06-22T20:00:45.520Z,6.43
2023-06-22T20:03:12.538Z,7.70
2023-06-22T20:08:30.190Z,10.85
2023-06-22T20:10:56.843Z,8.68
2023-06-22T20:13:23.527Z,8.73
2023-06-22T20:15:53.413Z,6.53
2023-06-22T20:18:22.190Z,6.18
2023-06-22T20:20:48.907Z,10.30
2023-06-22T20:23:15.734Z,8.52
2023-06-22T20:25:44.002Z,9.13
2023-06-22T20:28:10.862Z,11.93
2023-06-22T20:30:37.655Z,8.05
2023-06-22T20:33:06.978Z,8.15
2023-06-22T20:35:35.035Z,9.18
2023-06-22T20:38:01.816Z,9.27
2023-06-22T20:40:28.708Z,9.32
2023-06-22T20:42:55.519Z,10.05
2023-06-22T20:45:22.774Z,7.05
2023-06-22T20:47:49.495Z,9.07
2023-06-22T20:50:16.172Z,8.60
2023-06-22T20:52:43.263Z,6.03
2023-06-22T20:55:11.281Z,7.75
2023-06-22T20:57:38.054Z,7.05
2023-06-22T21:00:08.071Z,9.35
2023-06-22T21:02:35.224Z,9.30
2023-06-22T21:05:03.233Z,10.73
2023-06-22T21:07:30.007Z,8.98
2023-06-22T21:09:56.919Z,7.72
2023-06-22T21:12:23.783Z,7.45
2023-06-22T21:14:52.746Z,6.70
2023-06-22T21:17:19.983Z,6.70
2023-06-22T21:19:46.765Z,7.05
2023-06-22T21:22:13.504Z,6.85
2023-06-22T21:25:01.186Z,6.78
2023-06-22T21:27:27.922Z,7.03
2023-06-22T21:29:55.441Z,8.23
2023-06-22T21:32:23.416Z,7.40
2023-06-22T21:34:51.381Z,7.13
2023-06-22T21:37:18.057Z,9.45
2023-06-22T21:39:44.742Z,8.02
2023-06-22T21:42:11.603Z,6.25
2023-06-22T21:44:58.163Z,8.25
2023-06-22T21:47:26.114Z,6.20
2023-06-22T21:49:52.962Z,7.50
2023-06-22T21:52:19.736Z,7.88
2023-06-22T21:54:48.713Z,8.25
2023-06-22T21:57:15.893Z,8.38
2023-06-22T21:59:42.592Z,7.30
2023-06-22T22:02:09.345Z,8.52
2023-06-22T22:04:38.829Z,6.97
2023-06-22T22:07:06.126Z,6.72
2023-06-22T22:09:33.013Z,6.95
2023-06-22T22:12:00.876Z,7.85
2023-06-22T22:14:28.684Z,8.73
2023-06-22T22:16:55.439Z,7.20
2023-06-22T22:19:22.109Z,8.73
2023-06-22T22:21:48.807Z,7.68
2023-06-22T22:24:17.616Z,8.40
2023-06-22T22:26:44.257Z,6.65
2023-06-22T22:29:10.961Z,10.23
2023-06-22T22:31:40.823Z,7.75
2023-06-22T22:34:07.563Z,8.23
2023-06-22T22:36:34.598Z,8.65
2023-06-22T22:39:01.892Z,8.55
2023-06-22T22:41:28.678Z,6.65
2023-06-22T22:43:55.367Z,6.43
2023-06-22T22:46:24.179Z,8.52
2023-06-22T22:48:51.056Z,8.20
2023-06-22T22:51:17.769Z,8.45
2023-06-22T22:53:44.834Z,7.20
2023-06-22T22:56:11.961Z,7.55
2023-06-22T22:58:38.682Z,8.75
2023-06-22T23:01:05.417Z,11.50
2023-06-22T23:03:32.191Z,11.77
2023-06-22T23:05:59.281Z,8.98
2023-06-22T23:08:27.581Z,8.38
2023-06-22T23:10:54.281Z,6.40
2023-06-22T23:13:21.051Z,6.70
2023-06-22T23:15:51.767Z,7.10
2023-06-22T23:18:19.389Z,8.15
2023-06-22T23:20:46.134Z,9.73
2023-06-22T23:23:12.837Z,6.85
2023-06-22T23:25:39.728Z,6.90
2023-06-22T23:28:07.054Z,6.72
2023-06-22T23:30:33.771Z,8.23
2023-06-22T23:33:00.495Z,8.38
2023-06-22T23:35:29.882Z,6.88
2023-06-22T23:37:56.769Z,7.20
2023-06-22T23:40:23.465Z,9.48
2023-06-22T23:42:50.157Z,8.02
2023-06-22T23:45:18.732Z,11.25
2023-06-22T23:47:45.842Z,9.20
2023-06-22T23:50:13.094Z,7.38
2023-06-22T23:52:39.844Z,10.38
2023-06-22T23:55:25.265Z,7.03
2023-06-22T23:57:58.365Z,8.32
